Terminal Aerodrome Forecast
Issued by NWS

Home | Current Version | Previous Version | Graphics & Text | Print | Product List | Glossary On
Versions: 1 2 3 4 5 6 7 8 9 10 11 12 13 14 15 16 17 18 19 20 21 22 23
000
FTUS41 KCLE 242300
TAFFDY
TAF
KFDY 242320Z 2500/2524 09004KT P6SM BKN050
     FM250800 14003KT 5SM BR BKN050
     FM251300 16003KT 5SM BR BKN025
     FM251500 16007KT P6SM BKN025
     FM252100 17006KT P6SM BKN250=

USA.gov is the U.S. government's official web portal to all federal, state and local government web resources and services.